Time,TemperatureF,DewpointF,PressureIn,WindDirection,WindDirectionDegrees,WindSpeedMPH,WindSpeedGustMPH,Humidity,HourlyPrecipIn,Conditions,Clouds,dailyrainin,SoftwareType,DateUTC
2013-04-23 00:02:00,67.0,49.0,29.90,East,85,0.0,-999.0,53,-99.99,,,-99.99,,2013-04-23 05:02:00,
2013-04-23 00:12:00,67.0,49.0,29.90,East,85,0.0,-999.0,53,-99.99,,,-99.99,,2013-04-23 05:12:00,
2013-04-23 00:22:00,67.0,50.0,29.90,ESE,109,0.0,-999.0,54,-99.99,,,-99.99,,2013-04-23 05:22:00,
2013-04-23 00:32:00,66.0,50.0,29.90,SE,141,0.0,-999.0,57,-99.99,,,-99.99,,2013-04-23 05:32:00,
2013-04-23 00:42:00,66.0,50.0,29.90,SE,141,0.0,-999.0,57,-99.99,,,-99.99,,2013-04-23 05:42:00,
2013-04-23 00:52:00,64.0,51.0,29.89,SSE,147,1.0,-999.0,63,-99.99,,,-99.99,,2013-04-23 05:52:00,
2013-04-23 01:01:00,63.0,51.0,29.89,SSE,155,1.0,-999.0,66,-99.99,,,-99.99,,2013-04-23 06:01:00,
2013-04-23 01:12:00,63.0,51.0,29.89,SSE,155,1.0,-999.0,66,-99.99,,,-99.99,,2013-04-23 06:12:00,
2013-04-23 01:21:00,60.0,52.0,29.88,SSE,154,0.0,-999.0,75,-99.99,,,-99.99,,2013-04-23 06:21:00,
2013-04-23 01:32:00,60.0,52.0,29.88,South,179,2.0,-999.0,75,-99.99,,,-99.99,,2013-04-23 06:32:00,
2013-04-23 01:42:00,60.0,52.0,29.88,South,179,2.0,-999.0,75,-99.99,,,-99.99,,2013-04-23 06:42:00,
2013-04-23 01:52:00,60.0,51.0,29.85,ESE,120,2.0,-999.0,71,-99.99,,,-99.99,,2013-04-23 06:52:00,
2013-04-23 02:02:00,61.0,51.0,29.85,East,86,1.0,-999.0,69,-99.99,,,-99.99,,2013-04-23 07:02:00,
2013-04-23 02:11:00,61.0,51.0,29.85,East,86,1.0,-999.0,69,-99.99,,,-99.99,,2013-04-23 07:11:00,
2013-04-23 02:21:00,61.0,50.0,29.86,SE,130,1.0,-999.0,68,-99.99,,,-99.99,,2013-04-23 07:21:00,
2013-04-23 02:32:00,61.0,50.0,29.86,ESE,117,1.0,-999.0,66,-99.99,,,-99.99,,2013-04-23 07:32:00,
2013-04-23 02:42:00,61.0,50.0,29.86,ESE,117,1.0,-999.0,66,-99.99,,,-99.99,,2013-04-23 07:42:00,
2013-04-23 02:52:00,62.0,50.0,29.82,SE,145,1.0,-999.0,64,-99.99,,,-99.99,,2013-04-23 07:52:00,
2013-04-23 03:02:00,62.0,50.0,29.82,South,181,0.0,-999.0,64,-99.99,,,-99.99,,2013-04-23 08:02:00,
2013-04-23 03:11:00,62.0,50.0,29.82,South,181,0.0,-999.0,64,-99.99,,,-99.99,,2013-04-23 08:11:00,
2013-04-23 03:21:00,60.0,52.0,29.84,SSE,165,0.0,-999.0,76,-99.99,,,-99.99,,2013-04-23 08:21:00,
2013-04-23 03:31:00,58.0,53.0,29.84,SSE,165,0.0,-999.0,84,-99.99,,,-99.99,,2013-04-23 08:31:00,
2013-04-23 03:42:00,58.0,53.0,29.84,SSE,165,0.0,-999.0,84,-99.99,,,-99.99,,2013-04-23 08:42:00,
2013-04-23 03:52:00,56.0,54.0,29.81,East,100,0.0,-999.0,92,-99.99,,,-99.99,,2013-04-23 08:52:00,
2013-04-23 04:01:00,56.0,55.0,29.81,East,100,0.0,-999.0,95,-99.99,,,-99.99,,2013-04-23 09:01:00,
2013-04-23 04:11:00,56.0,55.0,29.81,East,100,0.0,-999.0,95,-99.99,,,-99.99,,2013-04-23 09:11:00,
2013-04-23 04:21:00,56.0,55.0,29.81,East,100,0.0,-999.0,97,-99.99,,,-99.99,,2013-04-23 09:21:00,
2013-04-23 04:32:00,56.0,55.0,29.81,West,271,2.0,-999.0,97,-99.99,,,-99.99,,2013-04-23 09:32:00,
2013-04-23 04:42:00,56.0,55.0,29.81,West,271,2.0,-999.0,97,-99.99,,,-99.99,,2013-04-23 09:42:00,
2013-04-23 04:53:00,56.0,55.0,29.84,WNW,294,0.0,-999.0,97,-99.99,,,-99.99,,2013-04-23 09:53:00,
2013-04-23 05:02:00,56.0,55.0,29.84,WNW,294,0.0,-999.0,97,-99.99,,,-99.99,,2013-04-23 10:02:00,
2013-04-23 05:13:00,56.0,55.0,29.84,WNW,294,0.0,-999.0,97,-99.99,,,-99.99,,2013-04-23 10:13:00,
2013-04-23 05:22:00,56.0,55.0,29.85,NW,325,0.0,-999.0,97,-99.99,,,-99.99,,2013-04-23 10:22:00,
2013-04-23 05:32:00,56.0,55.0,29.85,NNW,329,0.0,-999.0,97,-99.99,,,-99.99,,2013-04-23 10:32:00,
2013-04-23 05:42:00,56.0,55.0,29.85,NNW,329,0.0,-999.0,97,-99.99,,,-99.99,,2013-04-23 10:42:00,
2013-04-23 05:52:00,52.0,51.0,29.88,NW,326,2.0,-999.0,97,-99.99,,,-99.99,,2013-04-23 10:52:00,
2013-04-23 06:02:00,50.0,49.0,29.88,North,353,2.0,-999.0,97,-99.99,,,-99.99,,2013-04-23 11:02:00,
2013-04-23 06:12:00,47.0,46.0,29.88,North,354,2.0,-999.0,97,-99.99,,,-99.99,,2013-04-23 11:12:00,
2013-04-23 06:21:00,47.0,46.0,29.88,North,354,2.0,-999.0,97,-99.99,,,-99.99,,2013-04-23 11:21:00,
2013-04-23 06:32:00,47.0,46.0,29.88,NNE,18,1.0,-999.0,97,-99.99,,,-99.99,,2013-04-23 11:32:00,
2013-04-23 06:42:00,45.0,44.0,29.89,NNE,20,1.0,-999.0,97,-99.99,,,-99.99,,2013-04-23 11:42:00,
2013-04-23 06:53:00,45.0,44.0,29.89,NNE,20,1.0,-999.0,97,-99.99,,,-99.99,,2013-04-23 11:53:00,
2013-04-23 07:02:00,45.0,44.0,29.89,NNW,340,1.0,-999.0,97,-99.99,,,-99.99,,2013-04-23 12:02:00,
2013-04-23 07:12:00,45.0,44.0,29.89,NNW,340,1.0,-999.0,97,-99.99,,,-99.99,,2013-04-23 12:12:00,
2013-04-23 07:22:00,44.0,43.0,29.91,North,357,1.0,-999.0,97,-99.99,,,-99.99,,2013-04-23 12:22:00,
2013-04-23 07:32:00,44.0,43.0,29.91,North,360,1.0,-999.0,97,-99.99,,,-99.99,,2013-04-23 12:32:00,
2013-04-23 07:41:00,44.0,43.0,29.91,North,360,1.0,-999.0,97,-99.99,,,-99.99,,2013-04-23 12:41:00,
2013-04-23 07:52:00,44.0,43.0,29.93,NW,309,1.0,-999.0,97,-99.99,,,-99.99,,2013-04-23 12:52:00,
2013-04-23 08:01:00,44.0,43.0,29.93,North,360,1.0,-999.0,97,-99.99,,,-99.99,,2013-04-23 13:01:00,
2013-04-23 08:11:00,44.0,43.0,29.93,North,360,1.0,-999.0,97,-99.99,,,-99.99,,2013-04-23 13:11:00,
2013-04-23 08:21:00,43.0,42.0,29.95,NNW,332,1.0,-999.0,97,-99.99,,,-99.99,,2013-04-23 13:21:00,
2013-04-23 08:32:00,43.0,42.0,29.95,NNW,330,2.0,-999.0,97,-99.99,,,-99.99,,2013-04-23 13:32:00,
2013-04-23 08:41:00,43.0,42.0,29.95,NNW,330,2.0,-999.0,97,-99.99,,,-99.99,,2013-04-23 13:41:00,
2013-04-23 08:52:00,42.0,41.0,29.97,NNW,330,2.0,-999.0,97,-99.99,,,-99.99,,2013-04-23 13:52:00,
2013-04-23 09:01:00,42.0,41.0,29.97,NW,320,2.0,-999.0,97,-99.99,,,-99.99,,2013-04-23 14:01:00,
2013-04-23 09:11:00,42.0,41.0,29.97,NW,320,2.0,-999.0,97,-99.99,,,-99.99,,2013-04-23 14:11:00,
2013-04-23 09:22:00,41.0,40.0,29.97,NNW,330,2.0,-999.0,97,-99.99,,,-99.99,,2013-04-23 14:22:00,
2013-04-23 09:32:00,41.0,40.0,29.97,NW,319,3.0,-999.0,97,-99.99,,,-99.99,,2013-04-23 14:32:00,
2013-04-23 09:42:00,41.0,40.0,29.97,NW,319,3.0,-999.0,97,-99.99,,,-99.99,,2013-04-23 14:42:00,
2013-04-23 09:52:00,41.0,40.0,29.98,WNW,282,3.0,-999.0,97,-99.99,,,-99.99,,2013-04-23 14:52:00,
2013-04-23 10:01:00,41.0,40.0,29.98,WNW,282,3.0,-999.0,97,-99.99,,,-99.99,,2013-04-23 15:01:00,
2013-04-23 10:12:00,40.0,39.0,29.98,North,357,3.0,-999.0,97,-99.99,,,-99.99,,2013-04-23 15:12:00,
2013-04-23 10:21:00,39.0,38.0,29.99,WNW,298,3.0,-999.0,97,-99.99,,,-99.99,,2013-04-23 15:21:00,
2013-04-23 10:32:00,40.0,39.0,29.99,WNW,301,2.0,-999.0,97,-99.99,,,-99.99,,2013-04-23 15:32:00,
2013-04-23 10:42:00,40.0,39.0,29.99,WNW,301,2.0,-999.0,97,-99.99,,,-99.99,,2013-04-23 15:42:00,
2013-04-23 10:53:00,39.0,38.0,30.00,North,350,1.0,-999.0,97,-99.99,,,-99.99,,2013-04-23 15:53:00,
2013-04-23 11:02:00,39.0,38.0,30.00,WNW,301,2.0,-999.0,97,-99.99,,,-99.99,,2013-04-23 16:02:00,
2013-04-23 11:12:00,39.0,38.0,30.00,WNW,301,2.0,-999.0,97,-99.99,,,-99.99,,2013-04-23 16:12:00,
2013-04-23 11:23:00,39.0,38.0,30.02,West,274,2.0,-999.0,97,-99.99,,,-99.99,,2013-04-23 16:23:00,
2013-04-23 11:34:00,39.0,38.0,30.02,NNW,340,3.0,-999.0,97,-99.99,,,-99.99,,2013-04-23 16:34:00,
2013-04-23 11:42:00,39.0,38.0,30.02,NNW,340,3.0,-999.0,97,-99.99,,,-99.99,,2013-04-23 16:42:00,
2013-04-23 11:53:00,39.0,38.0,30.03,NNW,329,1.0,-999.0,97,-99.99,,,-99.99,,2013-04-23 16:53:00,
2013-04-23 12:02:00,39.0,38.0,30.03,WNW,289,2.0,-999.0,97,-99.99,,,-99.99,,2013-04-23 17:02:00,
2013-04-23 12:11:00,39.0,38.0,30.04,NW,315,3.0,-999.0,97,-99.99,,,-99.99,,2013-04-23 17:11:00,
2013-04-23 12:22:00,39.0,38.0,30.04,NW,315,3.0,-999.0,97,-99.99,,,-99.99,,2013-04-23 17:22:00,
2013-04-23 12:32:00,39.0,38.0,30.04,NNW,337,2.0,-999.0,97,-99.99,,,-99.99,,2013-04-23 17:32:00,
2013-04-23 12:42:00,39.0,38.0,30.04,NNW,337,2.0,-999.0,97,-99.99,,,-99.99,,2013-04-23 17:42:00,
2013-04-23 12:53:00,39.0,38.0,30.05,NNW,342,3.0,-999.0,96,-99.99,,,-99.99,,2013-04-23 17:53:00,
2013-04-23 13:02:00,39.0,38.0,30.05,NW,308,2.0,-999.0,96,-99.99,,,-99.99,,2013-04-23 18:02:00,
2013-04-23 13:12:00,39.0,38.0,30.05,NW,308,2.0,-999.0,96,-99.99,,,-99.99,,2013-04-23 18:12:00,
2013-04-23 13:22:00,39.0,38.0,30.05,NW,311,3.0,-999.0,95,-99.99,,,-99.99,,2013-04-23 18:22:00,
2013-04-23 13:32:00,39.0,37.0,30.05,North,354,2.0,-999.0,94,-99.99,,,-99.99,,2013-04-23 18:32:00,
2013-04-23 13:42:00,39.0,37.0,30.05,North,354,2.0,-999.0,94,-99.99,,,-99.99,,2013-04-23 18:42:00,
2013-04-23 13:52:00,39.0,37.0,30.04,North,11,2.0,-999.0,93,-99.99,,,-99.99,,2013-04-23 18:52:00,
2013-04-23 14:02:00,39.0,37.0,30.04,North,357,3.0,-999.0,92,-99.99,,,-99.99,,2013-04-23 19:02:00,
2013-04-23 14:11:00,39.0,37.0,30.04,North,357,3.0,-999.0,92,-99.99,,,-99.99,,2013-04-23 19:11:00,
2013-04-23 14:21:00,39.0,37.0,30.05,North,360,2.0,-999.0,92,-99.99,,,-99.99,,2013-04-23 19:21:00,
2013-04-23 14:32:00,39.0,37.0,30.05,NNW,332,1.0,-999.0,92,-99.99,,,-99.99,,2013-04-23 19:32:00,
2013-04-23 14:42:00,39.0,37.0,30.05,NNW,332,1.0,-999.0,92,-99.99,,,-99.99,,2013-04-23 19:42:00,
2013-04-23 14:52:00,39.0,37.0,30.06,NNW,343,2.0,-999.0,92,-99.99,,,-99.99,,2013-04-23 19:52:00,
2013-04-23 15:01:00,39.0,37.0,30.06,NW,305,2.0,-999.0,92,-99.99,,,-99.99,,2013-04-23 20:01:00,
2013-04-23 15:11:00,39.0,37.0,30.06,NW,305,2.0,-999.0,92,-99.99,,,-99.99,,2013-04-23 20:11:00,
2013-04-23 15:21:00,39.0,37.0,30.05,NW,304,1.0,-999.0,92,-99.99,,,-99.99,,2013-04-23 20:21:00,
2013-04-23 15:31:00,39.0,37.0,30.05,North,350,2.0,-999.0,92,-99.99,,,-99.99,,2013-04-23 20:31:00,
2013-04-23 15:42:00,39.0,37.0,30.05,North,350,2.0,-999.0,92,-99.99,,,-99.99,,2013-04-23 20:42:00,
2013-04-23 15:52:00,39.0,37.0,30.06,NNW,335,1.0,-999.0,91,-99.99,,,-99.99,,2013-04-23 20:52:00,
2013-04-23 16:01:00,39.0,37.0,30.06,WNW,298,2.0,-999.0,91,-99.99,,,-99.99,,2013-04-23 21:01:00,
2013-04-23 16:12:00,38.0,36.0,30.06,West,267,2.0,-999.0,92,-99.99,,,-99.99,,2013-04-23 21:12:00,
2013-04-23 16:21:00,38.0,36.0,30.06,West,267,2.0,-999.0,92,-99.99,,,-99.99,,2013-04-23 21:21:00,
2013-04-23 16:33:00,39.0,37.0,30.06,NNW,347,1.0,-999.0,91,-99.99,,,-99.99,,2013-04-23 21:33:00,
2013-04-23 16:43:00,39.0,37.0,30.06,NNW,347,1.0,-999.0,91,-99.99,,,-99.99,,2013-04-23 21:43:00,
2013-04-23 16:52:00,38.0,35.0,30.06,NNE,25,2.0,-999.0,90,-99.99,,,-99.99,,2013-04-23 21:52:00,
2013-04-23 17:03:00,39.0,36.0,30.06,WNW,299,2.0,-999.0,90,-99.99,,,-99.99,,2013-04-23 22:03:00,
2013-04-23 17:12:00,39.0,36.0,30.06,WNW,299,2.0,-999.0,90,-99.99,,,-99.99,,2013-04-23 22:12:00,
2013-04-23 17:22:00,38.0,35.0,30.06,NNW,335,2.0,-999.0,89,-99.99,,,-99.99,,2013-04-23 22:22:00,
2013-04-23 17:33:00,38.0,35.0,30.06,WNW,292,3.0,-999.0,88,-99.99,,,-99.99,,2013-04-23 22:33:00,
2013-04-23 17:42:00,38.0,35.0,30.06,WNW,292,3.0,-999.0,88,-99.99,,,-99.99,,2013-04-23 22:42:00,
2013-04-23 17:52:00,38.0,35.0,30.07,NNW,330,1.0,-999.0,88,-99.99,,,-99.99,,2013-04-23 22:52:00,
2013-04-23 18:02:00,38.0,34.0,30.07,North,357,1.0,-999.0,87,-99.99,,,-99.99,,2013-04-23 23:02:00,
2013-04-23 18:12:00,38.0,34.0,30.07,North,357,1.0,-999.0,87,-99.99,,,-99.99,,2013-04-23 23:12:00,
2013-04-23 18:22:00,37.0,34.0,30.09,NNW,337,2.0,-999.0,89,-99.99,,,-99.99,,2013-04-23 23:22:00,
2013-04-23 18:32:00,37.0,34.0,30.09,WNW,299,2.0,-999.0,89,-99.99,,,-99.99,,2013-04-23 23:32:00,
2013-04-23 18:42:00,37.0,34.0,30.09,North,357,2.0,-999.0,88,-99.99,,,-99.99,,2013-04-23 23:42:00,
2013-04-23 18:52:00,37.0,34.0,30.09,North,357,2.0,-999.0,88,-99.99,,,-99.99,,2013-04-23 23:52:00,
2013-04-23 19:01:00,37.0,34.0,30.09,NW,311,2.0,-999.0,88,-99.99,,,-99.99,,2013-04-24 00:01:00,
2013-04-23 19:11:00,37.0,34.0,30.09,NW,311,2.0,-999.0,88,-99.99,,,-99.99,,2013-04-24 00:11:00,
2013-04-23 19:21:00,37.0,33.0,30.10,NW,318,2.0,-999.0,85,-99.99,,,-99.99,,2013-04-24 00:21:00,
2013-04-23 19:32:00,37.0,33.0,30.10,North,354,2.0,-999.0,85,-99.99,,,-99.99,,2013-04-24 00:32:00,
2013-04-23 19:41:00,37.0,33.0,30.10,North,354,2.0,-999.0,85,-99.99,,,-99.99,,2013-04-24 00:41:00,
2013-04-23 19:52:00,37.0,34.0,30.12,West,270,2.0,-999.0,87,-99.99,,,-99.99,,2013-04-24 00:52:00,
2013-04-23 20:01:00,36.0,33.0,30.11,West,278,2.0,-999.0,87,-99.99,,,-99.99,,2013-04-24 01:01:00,
2013-04-23 20:11:00,36.0,33.0,30.11,West,278,2.0,-999.0,87,-99.99,,,-99.99,,2013-04-24 01:11:00,
2013-04-23 20:21:00,37.0,34.0,30.13,NNW,332,2.0,-999.0,87,-99.99,,,-99.99,,2013-04-24 01:21:00,
2013-04-23 20:32:00,37.0,34.0,30.13,NW,326,1.0,-999.0,88,-99.99,,,-99.99,,2013-04-24 01:32:00,
2013-04-23 20:42:00,37.0,34.0,30.13,NW,326,1.0,-999.0,88,-99.99,,,-99.99,,2013-04-24 01:42:00,
2013-04-23 20:52:00,36.0,33.0,30.14,NW,326,2.0,-999.0,88,-99.99,,,-99.99,,2013-04-24 01:52:00,
2013-04-23 21:02:00,36.0,33.0,30.14,WNW,294,1.0,-999.0,88,-99.99,,,-99.99,,2013-04-24 02:02:00,
2013-04-23 21:37:00,36.0,33.0,30.15,NW,320,2.0,-999.0,89,-99.99,,,-99.99,,2013-04-24 02:37:00,
2013-04-23 21:46:00,36.0,33.0,30.15,NW,320,2.0,-999.0,89,-99.99,,,-99.99,,2013-04-24 02:46:00,
2013-04-23 21:59:00,36.0,33.0,30.16,NW,325,1.0,-999.0,87,-99.99,,,-99.99,,2013-04-24 02:59:00,
2013-04-23 22:15:00,36.0,32.0,30.16,North,349,1.0,-999.0,86,-99.99,,,-99.99,,2013-04-24 03:15:00,
2013-04-23 22:27:00,36.0,32.0,30.17,West,275,2.0,-999.0,85,-99.99,,,-99.99,,2013-04-24 03:27:00,
2013-04-23 22:38:00,36.0,32.0,30.17,NW,316,1.0,-999.0,84,-99.99,,,-99.99,,2013-04-24 03:38:00,
2013-04-23 22:48:00,36.0,32.0,30.17,NW,316,1.0,-999.0,84,-99.99,,,-99.99,,2013-04-24 03:48:00,
2013-04-23 23:00:00,37.0,33.0,30.20,West,268,1.0,-999.0,84,-99.99,,,-99.99,,2013-04-24 04:00:00,
2013-04-23 23:03:00,37.0,32.0,30.20,NNW,332,2.0,-999.0,83,-99.99,,,-99.99,,2013-04-24 04:03:00,
2013-04-23 23:12:00,37.0,32.0,30.20,NNW,332,2.0,-999.0,83,-99.99,,,-99.99,,2013-04-24 04:12:00,
2013-04-23 23:23:00,37.0,32.0,30.20,West,264,2.0,-999.0,82,-99.99,,,-99.99,,2013-04-24 04:23:00,
2013-04-23 23:33:00,37.0,32.0,30.20,West,263,1.0,-999.0,83,-99.99,,,-99.99,,2013-04-24 04:33:00,
2013-04-23 23:43:00,37.0,32.0,30.20,West,263,1.0,-999.0,83,-99.99,,,-99.99,,2013-04-24 04:43:00,
2013-04-23 23:53:00,37.0,32.0,30.21,NNW,333,2.0,-999.0,81,-99.99,,,-99.99,,2013-04-24 04:53:00,